Terminal Aerodrome Forecast
Issued by NWS

Home | Current Version | Previous Version | Text Only | Print | Product List | Glossary On
Versions: 1 2 3 4 5 6 7 8 9 10 11 12 13 14 15 16
000
FTUS42 KTAE 222320
TAFVLD
TAF
KVLD 222320Z 2300/2324 00000KT P6SM SCT040 SCT120 SCT250
     FM230900 00000KT 2SM BR BKN005
     FM231400 29003KT P6SM SCT020
     FM231800 25005KT P6SM TS BKN040CB
     FM232200 VRB10G15KT 3SM TSRA SCT020 BKN035CB=

USA.gov is the U.S. government's official web portal to all federal, state and local government web resources and services.